Time;durP1;ratioP1;P1;durP2;ratioP2;P2;SDS_P1;SDS_P2;PMS_P1;PMS_P2;Temp;Humidity;BMP_temperature;BMP_pressure;BME280_temperature;BME280_humidity;BME280_pressure;Samples;Min_cycle;Max_cycle;Signal;HPM_P1;HPM_P2
2021/11/26 00:00:21;;;;;;;14.07;2.33;;;;;;;2.26;100.00;99738.00;7398418;19;20407;-42
2021/11/26 00:02:53;;;;;;;13.13;2.40;;;;;;;2.24;100.00;99739.59;7394145;19;20412;-42
2021/11/26 00:05:27;;;;;;;13.87;2.17;;;;;;;2.33;100.00;99738.38;7396046;19;20402;-44
2021/11/26 00:07:57;;;;;;;11.13;1.87;;;;;;;2.27;100.00;99733.81;7392532;19;20435;-45
2021/11/26 00:10:26;;;;;;;7.67;1.67;;;;;;;2.28;100.00;99728.81;7397876;19;20391;-46
2021/11/26 00:12:59;;;;;;;11.80;1.70;;;;;;;2.26;100.00;99715.09;7393817;19;20396;-41
2021/11/26 00:15:38;;;;;;;3.70;1.93;;;;;;;2.21;100.00;99713.94;7397032;19;20391;-42
2021/11/26 00:18:16;;;;;;;6.07;1.70;;;;;;;2.19;100.00;99713.00;7393266;19;20471;-43
2021/11/26 00:20:46;;;;;;;8.80;2.47;;;;;;;2.24;100.00;99700.53;7398733;19;20394;-44
2021/11/26 00:23:16;;;;;;;3.57;1.63;;;;;;;2.16;100.00;99705.19;7401653;19;20457;-45
2021/11/26 00:25:46;;;;;;;4.80;1.73;;;;;;;2.10;100.00;99692.09;7404439;19;20415;-48
2021/11/26 00:28:15;;;;;;;5.57;2.10;;;;;;;2.11;100.00;99688.78;7399159;19;20474;-50
2021/11/26 00:30:47;;;;;;;20.13;1.90;;;;;;;2.08;100.00;99676.75;7405469;19;20439;-43
2021/11/26 00:33:19;;;;;;;7.57;1.90;;;;;;;2.14;100.00;99671.13;7401854;19;20487;-44
2021/11/26 00:35:49;;;;;;;5.10;2.27;;;;;;;2.14;100.00;99677.09;7404081;19;20451;-49
2021/11/26 00:38:19;;;;;;;2.77;1.30;;;;;;;2.21;100.00;99664.72;7400579;19;20415;-50
2021/11/26 00:40:49;;;;;;;3.30;0.63;;;;;;;2.18;100.00;99652.69;7404707;19;20462;-50
2021/11/26 00:43:18;;;;;;;4.73;1.00;;;;;;;2.24;100.00;99655.59;7400800;19;20515;-46
2021/11/26 00:45:51;;;;;;;1.40;0.60;;;;;;;2.33;100.00;99656.91;7403630;19;20383;-46
2021/11/26 00:48:23;;;;;;;5.37;1.83;;;;;;;2.26;100.00;99656.56;7401293;19;20498;-50
2021/11/26 00:50:53;;;;;;;3.10;1.10;;;;;;;2.35;100.00;99661.31;7404757;19;20446;-45
2021/11/26 00:53:23;;;;;;;4.33;1.00;;;;;;;2.26;100.00;99656.56;7400707;19;20410;-40
2021/11/26 00:55:52;;;;;;;3.50;0.90;;;;;;;2.19;100.00;99653.59;7403244;19;20386;-44
2021/11/26 00:58:22;;;;;;;4.67;1.10;;;;;;;2.18;100.00;99647.63;7398451;19;20498;-47
2021/11/26 01:00:51;;;;;;;5.90;1.43;;;;;;;2.15;100.00;99639.78;7404362;19;20388;-44
2021/11/26 01:03:24;;;;;;;4.13;1.10;;;;;;;2.20;100.00;99646.03;7400727;19;20420;-46
2021/11/26 01:05:53;;;;;;;7.90;1.30;;;;;;;2.31;100.00;99649.22;7402696;19;20404;-44
2021/11/26 01:08:23;;;;;;;4.80;1.40;;;;;;;2.25;100.00;99642.06;7399007;19;20436;-46
2021/11/26 01:10:53;;;;;;;1.60;0.90;;;;;;;2.37;100.00;99643.56;7403875;19;20437;-45
2021/11/26 01:13:23;;;;;;;10.23;1.47;;;;;;;2.31;100.00;99639.03;7401197;19;20487;-44
2021/11/26 01:15:52;;;;;;;6.40;1.27;;;;;;;2.41;100.00;99633.66;7402631;19;20467;-49
2021/11/26 01:18:24;;;;;;;2.20;0.97;;;;;;;2.46;100.00;99620.31;7398907;19;20417;-46
2021/11/26 01:20:54;;;;;;;1.83;0.80;;;;;;;2.50;100.00;99618.00;7403844;19;20400;-44
2021/11/26 01:23:25;;;;;;;4.27;1.07;;;;;;;2.53;100.00;99620.75;7400352;19;20419;-44
2021/11/26 01:25:54;;;;;;;6.97;1.30;;;;;;;2.59;100.00;99621.84;7403611;19;20388;-44
2021/11/26 01:28:24;;;;;;;7.80;1.27;;;;;;;2.51;100.00;99629.94;7399025;19;20410;-44
2021/11/26 01:30:54;;;;;;;2.80;1.20;;;;;;;2.63;100.00;99626.34;7403329;19;20451;-43
2021/11/26 01:33:26;;;;;;;8.23;1.13;;;;;;;2.51;100.00;99622.31;7398648;19;20415;-46
2021/11/26 01:35:55;;;;;;;3.10;1.10;;;;;;;2.57;100.00;99616.69;7401963;19;20387;-48
2021/11/26 01:38:25;;;;;;;4.30;1.50;;;;;;;2.48;100.00;99614.50;7399327;19;20445;-44
2021/11/26 01:40:55;;;;;;;6.20;1.20;;;;;;;2.48;100.00;99613.63;7402891;19;20466;-43
2021/11/26 01:43:24;;;;;;;6.77;1.40;;;;;;;2.47;100.00;99607.66;7397788;19;20419;-45
2021/11/26 01:45:56;;;;;;;5.73;1.80;;;;;;;2.45;100.00;99606.69;7401595;19;20448;-49
2021/11/26 01:48:28;;;;;;;11.27;1.63;;;;;;;2.48;100.00;99599.22;7399834;19;20423;-43
2021/11/26 01:50:57;;;;;;;2.90;1.20;;;;;;;2.43;100.00;99598.09;7402874;19;20462;-44
2021/11/26 01:53:27;;;;;;;10.77;1.60;;;;;;;2.49;100.00;99584.81;7396842;19;20415;-50
2021/11/26 01:55:56;;;;;;;11.20;1.50;;;;;;;2.47;100.00;99582.19;7401273;19;20452;-44
2021/11/26 01:58:26;;;;;;;4.57;1.50;;;;;;;2.45;100.00;99578.66;7398217;19;20485;-42
2021/11/26 02:00:57;;;;;;;15.50;1.70;;;;;;;2.41;100.00;99575.09;7403031;19;20447;-46
2021/11/26 02:03:29;;;;;;;7.37;1.90;;;;;;;2.39;100.00;99565.59;7399687;19;20435;-43
2021/11/26 02:05:59;;;;;;;11.57;1.73;;;;;;;2.41;100.00;99559.81;7400983;19;20384;-44
2021/11/26 02:08:28;;;;;;;16.00;2.73;;;;;;;2.35;100.00;99558.59;7398237;19;20430;-50
2021/11/26 02:10:58;;;;;;;6.33;2.20;;;;;;;2.35;100.00;99561.16;7401950;19;20720;-42
2021/11/26 02:13:27;;;;;;;4.07;1.80;;;;;;;2.36;100.00;99561.22;7394101;19;21067;-48
2021/11/26 02:15:59;;;;;;;5.00;0.90;;;;;;;2.37;100.00;99557.88;7400615;19;20459;-47
2021/11/26 02:18:31;;;;;;;6.03;2.03;;;;;;;2.43;100.00;99552.25;7398546;19;20415;-45
2021/11/26 02:21:03;;;;;;;4.43;2.13;;;;;;;2.38;100.00;99552.00;7401678;19;20383;-43
2021/11/26 02:23:33;;;;;;;6.17;2.67;;;;;;;2.41;100.00;99551.31;7396833;19;20732;-50
2021/11/26 02:26:02;;;;;;;9.00;3.17;;;;;;;2.43;100.00;99542.06;7400096;19;20488;-46
2021/11/26 02:28:32;;;;;;;5.80;2.70;;;;;;;2.46;100.00;99542.22;7397980;19;20423;-49
2021/11/26 02:31:01;;;;;;;17.27;4.37;;;;;;;2.41;100.00;99538.56;7401351;19;20388;-43
2021/11/26 02:33:31;;;;;;;8.80;3.17;;;;;;;2.38;100.00;99535.84;7398529;19;20415;-46
2021/11/26 02:36:03;;;;;;;16.03;3.77;;;;;;;2.42;100.00;99531.00;7400033;19;20688;-49
2021/11/26 02:38:32;;;;;;;10.60;3.87;;;;;;;2.37;100.00;99517.13;7395923;19;20439;-44
2021/11/26 02:41:02;;;;;;;12.50;4.90;;;;;;;2.47;100.00;99518.53;7400870;19;20408;-51
2021/11/26 02:43:31;;;;;;;18.73;4.30;;;;;;;2.36;100.00;99519.63;7396495;19;20479;-45
2021/11/26 02:46:01;;;;;;;8.13;3.47;;;;;;;2.29;100.00;99509.09;7397277;19;20741;-45
2021/11/26 02:48:30;;;;;;;13.83;6.60;;;;;;;2.48;100.00;99502.47;7397603;19;21252;-45
2021/11/26 02:51:03;;;;;;;15.50;5.40;;;;;;;2.43;100.00;99499.66;7400771;19;20394;-49
2021/11/26 02:53:32;;;;;;;17.50;5.87;;;;;;;2.42;100.00;99490.25;7397463;19;20430;-50
2021/11/26 02:56:02;;;;;;;16.07;4.90;;;;;;;2.40;100.00;99496.06;7399227;19;20414;-52
2021/11/26 02:58:31;;;;;;;11.40;5.27;;;;;;;2.37;100.00;99490.81;7396213;19;20422;-50
2021/11/26 03:01:02;;;;;;;11.57;5.17;;;;;;;2.32;100.00;99493.13;7400317;19;20455;-48
2021/11/26 03:03:32;;;;;;;13.70;5.73;;;;;;;2.31;100.00;99493.03;7396920;19;20427;-42
2021/11/26 03:06:06;;;;;;;10.63;4.33;;;;;;;2.32;100.00;99497.31;7398777;19;20487;-42
2021/11/26 03:08:37;;;;;;;10.20;5.60;;;;;;;2.38;100.00;99484.94;7394575;19;20424;-47
2021/11/26 03:11:07;;;;;;;12.47;5.10;;;;;;;2.34;100.00;99493.19;7400307;19;20439;-45
2021/11/26 03:13:37;;;;;;;12.83;5.60;;;;;;;2.38;100.00;99477.28;7396632;19;20419;-51
2021/11/26 03:16:07;;;;;;;17.67;5.50;;;;;;;2.34;100.00;99480.44;7403192;19;20411;-44
2021/11/26 03:18:37;;;;;;;11.83;5.83;;;;;;;2.31;100.00;99475.22;7396503;19;20506;-48
2021/11/26 03:21:09;;;;;;;9.57;5.70;;;;;;;2.44;100.00;99480.16;7399863;19;20909;-50
2021/11/26 03:23:41;;;;;;;24.03;6.60;;;;;;;2.43;100.00;99466.56;7396462;19;20474;-49
2021/11/26 03:26:10;;;;;;;12.77;6.60;;;;;;;2.38;100.00;99467.09;7402748;19;20478;-47
2021/11/26 03:28:40;;;;;;;15.30;7.43;;;;;;;2.49;100.00;99460.03;7396417;19;20399;-52
2021/11/26 03:31:09;;;;;;;10.73;6.80;;;;;;;2.53;100.00;99457.75;7399482;19;20459;-49
2021/11/26 03:33:38;;;;;;;12.07;6.77;;;;;;;2.47;100.00;99457.44;7396061;19;20891;-51
2021/11/26 03:36:11;;;;;;;13.20;7.67;;;;;;;2.33;100.00;99455.78;7398173;19;20395;-49
2021/11/26 03:38:40;;;;;;;20.53;7.63;;;;;;;2.23;100.00;99454.44;7395946;19;21738;-42
2021/11/26 03:41:11;;;;;;;13.27;8.07;;;;;;;2.35;100.00;99454.22;7403550;19;20387;-42
2021/11/26 03:43:41;;;;;;;14.97;8.00;;;;;;;2.41;100.00;99449.47;7394309;19;20415;-44
2021/11/26 03:46:11;;;;;;;16.23;9.40;;;;;;;2.35;100.00;99444.03;7397848;19;20499;-44
2021/11/26 03:48:41;;;;;;;19.50;10.20;;;;;;;2.36;100.00;99441.56;7395842;19;20716;-44
2021/11/26 03:51:13;;;;;;;25.50;9.00;;;;;;;2.45;100.00;99443.72;7399082;19;20399;-47
2021/11/26 03:53:42;;;;;;;20.70;9.90;;;;;;;2.48;100.00;99433.72;7392313;19;20421;-42
2021/11/26 03:56:11;;;;;;;17.53;9.50;;;;;;;2.32;100.00;99426.94;7399378;19;20399;-48
2021/11/26 03:58:41;;;;;;;16.60;9.10;;;;;;;2.39;100.00;99425.56;7402241;19;20482;-44
2021/11/26 04:01:10;;;;;;;18.90;9.47;;;;;;;2.21;100.00;99417.84;7406226;19;20451;-42
2021/11/26 04:03:41;;;;;;;15.27;9.20;;;;;;;2.38;100.00;99414.53;7402498;19;20495;-42
2021/11/26 04:06:13;;;;;;;19.40;11.00;;;;;;;2.50;100.00;99413.41;7404749;19;20404;-43
2021/11/26 04:08:42;;;;;;;18.83;11.23;;;;;;;2.51;100.00;99410.09;7401268;19;20434;-43
2021/11/26 04:11:12;;;;;;;19.80;9.67;;;;;;;2.50;100.00;99406.66;7405980;19;20447;-44
2021/11/26 04:13:41;;;;;;;17.77;10.10;;;;;;;2.33;100.00;99398.13;7403856;19;21259;-42
2021/11/26 04:16:13;;;;;;;16.63;9.20;;;;;;;2.47;100.00;99396.31;7404348;19;20419;-44
2021/11/26 04:18:43;;;;;;;18.47;9.00;;;;;;;2.29;100.00;99391.13;7402422;19;20411;-41
2021/11/26 04:21:15;;;;;;;25.57;9.30;;;;;;;2.16;100.00;99384.50;7405695;19;20669;-46
2021/11/26 04:23:45;;;;;;;21.77;8.23;;;;;;;2.14;100.00;99381.88;7401978;19;20680;-44
2021/11/26 04:26:15;;;;;;;16.53;7.67;;;;;;;2.12;100.00;99382.59;7403933;19;20403;-43
2021/11/26 04:28:44;;;;;;;19.47;10.00;;;;;;;2.15;100.00;99372.56;7401852;19;20429;-42
2021/11/26 04:31:14;;;;;;;22.47;10.73;;;;;;;2.19;100.00;99371.94;7405268;19;20392;-44
2021/11/26 04:33:43;;;;;;;17.47;10.27;;;;;;;2.15;100.00;99367.47;7399221;19;20425;-42
2021/11/26 04:36:15;;;;;;;22.87;11.40;;;;;;;2.25;100.00;99356.13;7403628;19;20739;-42
2021/11/26 04:38:45;;;;;;;17.90;11.70;;;;;;;2.25;100.00;99344.25;7400685;19;20740;-44
2021/11/26 04:41:14;;;;;;;17.67;10.30;;;;;;;2.20;100.00;99343.16;7406381;19;20400;-42
2021/11/26 04:43:44;;;;;;;24.50;14.30;;;;;;;2.21;100.00;99334.72;7400906;19;20479;-43
2021/11/26 04:46:13;;;;;;;32.27;15.63;;;;;;;2.27;100.00;99327.41;7403273;19;20425;-43
2021/11/26 04:48:42;;;;;;;39.03;15.93;;;;;;;2.33;100.00;99325.97;7398465;19;20415;-43
2021/11/26 04:51:15;;;;;;;18.20;11.80;;;;;;;2.41;100.00;99324.72;7404562;19;20731;-45
2021/11/26 04:53:44;;;;;;;21.33;11.30;;;;;;;2.18;100.00;99321.84;7400733;19;20699;-45
2021/11/26 04:56:14;;;;;;;26.23;13.20;;;;;;;2.28;100.00;99319.00;7403023;19;20408;-43
2021/11/26 04:58:43;;;;;;;30.23;13.10;;;;;;;2.25;100.00;99308.63;7400025;19;20411;-44
2021/11/26 05:01:12;;;;;;;31.73;14.10;;;;;;;2.47;100.00;99303.78;7402063;19;20396;-47
2021/11/26 05:03:42;;;;;;;24.23;12.97;;;;;;;2.37;100.00;99304.97;7399086;19;20434;-43
2021/11/26 05:06:14;;;;;;;23.83;12.30;;;;;;;2.24;100.00;99306.00;7402662;19;20420;-43
2021/11/26 05:08:44;;;;;;;26.00;14.27;;;;;;;2.47;100.00;99297.03;7399558;19;20444;-42
2021/11/26 05:11:13;;;;;;;26.40;13.77;;;;;;;2.33;100.00;99295.41;7403945;19;20435;-42
2021/11/26 05:13:43;;;;;;;21.87;13.03;;;;;;;2.17;100.00;99294.66;7399362;19;20414;-43
2021/11/26 05:16:14;;;;;;;23.60;10.67;;;;;;;2.09;100.00;99286.59;7402211;19;20424;-43
2021/11/26 05:18:44;;;;;;;26.23;13.23;;;;;;;2.04;100.00;99282.94;7400228;19;20478;-43
2021/11/26 05:21:16;;;;;;;21.80;13.73;;;;;;;2.07;100.00;99290.75;7401801;19;20394;-43
2021/11/26 05:23:45;;;;;;;30.07;16.37;;;;;;;2.16;100.00;99275.09;7402412;19;20443;-42
2021/11/26 05:26:15;;;;;;;30.50;16.00;;;;;;;1.96;100.00;99280.00;7401871;19;20479;-46
2021/11/26 05:28:45;;;;;;;27.13;13.83;;;;;;;1.86;100.00;99277.75;7396784;19;20482;-44
2021/11/26 05:31:14;;;;;;;32.90;16.00;;;;;;;1.80;100.00;99279.97;7403480;19;20467;-45
2021/11/26 05:33:44;;;;;;;32.87;15.40;;;;;;;1.77;100.00;99279.81;7399509;19;20941;-46
2021/11/26 05:36:16;;;;;;;33.83;14.60;;;;;;;1.75;100.00;99280.59;7401938;19;20467;-49
2021/11/26 05:38:45;;;;;;;32.33;16.97;;;;;;;1.73;100.00;99277.13;7399696;19;20407;-50
2021/11/26 05:41:15;;;;;;;37.58;17.65;;;;;;;1.79;100.00;99278.25;7401207;19;20402;-47
2021/11/26 05:43:44;;;;;;;43.87;18.60;;;;;;;1.82;100.00;99265.66;7397799;19;20254;-47
2021/11/26 05:46:14;;;;;;;43.73;18.00;;;;;;;1.74;100.00;99263.59;7401386;19;20473;-46
2021/11/26 05:48:44;;;;;;;44.40;20.60;;;;;;;1.80;100.00;99267.25;7398181;19;20426;-46
2021/11/26 05:51:16;;;;;;;40.23;19.30;;;;;;;1.80;100.00;99265.56;7402605;19;20645;-48
2021/11/26 05:53:45;;;;;;;41.23;21.97;;;;;;;1.81;100.00;99262.25;7399267;19;20678;-43
2021/11/26 05:56:15;;;;;;;49.80;22.77;;;;;;;1.81;100.00;99262.25;7401060;19;20420;-49
2021/11/26 05:58:44;;;;;;;38.40;17.13;;;;;;;1.79;100.00;99257.88;7397989;19;20932;-50
2021/11/26 06:01:14;;;;;;;45.60;19.60;;;;;;;1.77;100.00;99256.91;7400875;19;20391;-48
2021/11/26 06:03:43;;;;;;;44.90;21.77;;;;;;;1.78;100.00;99251.06;7395979;19;20427;-50
2021/11/26 06:06:15;;;;;;;48.30;23.47;;;;;;;1.86;100.00;99243.00;7400741;19;20407;-52
2021/11/26 06:08:45;;;;;;;44.17;20.10;;;;;;;1.73;100.00;99241.50;7396986;19;20429;-46
2021/11/26 06:11:14;;;;;;;55.83;21.13;;;;;;;1.71;100.00;99239.69;7401980;19;20398;-49
2021/11/26 06:13:44;;;;;;;61.60;23.13;;;;;;;1.75;100.00;99239.06;7395560;19;20423;-52
2021/11/26 06:16:13;;;;;;;53.63;22.83;;;;;;;1.80;100.00;99236.75;7400418;19;20845;-49
2021/11/26 06:18:43;;;;;;;37.95;16.83;;;;;;;1.73;100.00;99231.34;7397691;19;20253;-49
2021/11/26 06:21:12;;;;;;;50.25;21.50;;;;;;;1.72;100.00;99234.69;7404896;19;20189;-50
2021/11/26 06:23:44;;;;;;;48.43;19.03;;;;;;;1.75;100.00;99232.28;7397988;19;20202;-52
2021/11/26 06:26:14;;;;;;;61.07;25.23;;;;;;;1.72;100.00;99227.03;7400020;19;20474;-51
2021/11/26 06:28:43;;;;;;;53.30;20.93;;;;;;;1.74;100.00;99228.00;7399008;19;20447;-53
2021/11/26 06:31:13;;;;;;;56.53;23.80;;;;;;;1.81;100.00;99231.75;7401262;19;20854;-47
2021/11/26 06:33:42;;;;;;;60.33;25.00;;;;;;;1.86;100.00;99224.34;7396726;19;21258;-50
2021/11/26 06:36:12;;;;;;;61.33;24.20;;;;;;;1.78;100.00;99228.16;7399932;19;20470;-43
2021/11/26 06:38:41;;;;;;;66.00;23.67;;;;;;;1.82;100.00;99228.41;7396951;19;20420;-42
2021/11/26 06:41:13;;;;;;;59.40;22.83;;;;;;;1.83;100.00;99221.63;7399908;19;20388;-44
2021/11/26 06:43:42;;;;;;;59.03;23.48;;;;;;;1.91;100.00;99228.00;7396639;19;20445;-45
2021/11/26 06:46:12;;;;;;;54.87;21.23;;;;;;;1.84;100.00;99225.94;7399662;19;20173;-42
2021/11/26 06:48:41;;;;;;;65.50;25.57;;;;;;;1.92;100.00;99214.50;7393834;19;20485;-43
2021/11/26 06:51:11;;;;;;;46.50;18.77;;;;;;;1.88;100.00;99218.56;7400563;19;20467;-42
2021/11/26 06:53:41;;;;;;;48.10;20.77;;;;;;;1.81;100.00;99211.41;7395920;19;20423;-44
2021/11/26 06:56:13;;;;;;;61.45;21.67;;;;;;;1.87;100.00;99213.38;7399307;19;20393;-42
2021/11/26 06:58:42;;;;;;;55.47;21.60;;;;;;;1.91;100.00;99209.31;7395832;19;20600;-42
2021/11/26 07:01:12;;;;;;;57.87;24.37;;;;;;;1.85;100.00;99204.81;7399608;19;20399;-41
2021/11/26 07:03:42;;;;;;;62.40;22.70;;;;;;;1.87;100.00;99204.09;7395777;19;20775;-43
2021/11/26 07:06:11;;;;;;;54.93;22.23;;;;;;;1.90;100.00;99203.38;7398970;19;20399;-42
2021/11/26 07:08:41;;;;;;;66.50;22.03;;;;;;;1.90;100.00;99208.47;7396421;19;20411;-44
2021/11/26 07:11:13;;;;;;;88.60;32.07;;;;;;;2.11;100.00;99198.47;7400156;19;20452;-45
2021/11/26 07:13:42;;;;;;;59.83;25.23;;;;;;;2.04;100.00;99200.66;7395901;19;20423;-45
2021/11/26 07:16:12;;;;;;;72.50;24.08;;;;;;;2.03;100.00;99194.69;7398235;19;20799;-43
2021/11/26 07:18:41;;;;;;;68.90;27.20;;;;;;;2.10;100.00;99191.66;7396999;19;20197;-43
2021/11/26 07:21:11;;;;;;;52.75;19.85;;;;;;;1.98;100.00;99180.84;7403567;19;20401;-42
2021/11/26 07:23:40;;;;;;;56.30;21.13;;;;;;;2.01;100.00;99181.03;7395871;19;20186;-45
2021/11/26 07:26:13;;;;;;;62.00;20.97;;;;;;;2.03;100.00;99184.50;7398400;19;20235;-45
2021/11/26 07:28:42;;;;;;;59.23;24.70;;;;;;;2.07;100.00;99183.00;7395853;19;20485;-43
2021/11/26 07:31:12;;;;;;;52.53;22.10;;;;;;;2.09;100.00;99178.84;7397916;19;20406;-43
2021/11/26 07:33:41;;;;;;;59.93;25.07;;;;;;;2.08;100.00;99174.56;7396053;19;20426;-45
2021/11/26 07:36:11;;;;;;;58.57;24.17;;;;;;;2.08;100.00;99172.00;7398123;19;20404;-45
2021/11/26 07:38:41;;;;;;;54.70;19.10;;;;;;;2.05;100.00;99167.63;7396500;19;20423;-44
2021/11/26 07:41:15;;;;;;;62.73;22.40;;;;;;;2.13;100.00;99162.94;7398446;19;20398;-42
2021/11/26 07:43:44;;;;;;;53.20;20.93;;;;;;;2.12;100.00;99166.28;7395139;19;20420;-43
2021/11/26 07:46:14;;;;;;;70.87;23.23;;;;;;;2.14;100.00;99157.03;7397526;19;20420;-46
2021/11/26 07:48:43;;;;;;;59.10;19.90;;;;;;;2.20;100.00;99159.03;7393578;19;20430;-44
2021/11/26 07:51:13;;;;;;;51.93;18.77;;;;;;;2.20;100.00;99157.34;7398999;19;20400;-45
2021/11/26 07:53:42;;;;;;;43.73;14.60;;;;;;;2.19;100.00;99159.84;7392385;19;20429;-45
2021/11/26 07:56:14;;;;;;;44.63;15.63;;;;;;;2.18;100.00;99152.97;7397637;19;20890;-48
2021/11/26 07:58:44;;;;;;;56.90;20.00;;;;;;;2.26;100.00;99155.13;7394844;19;20479;-45
2021/11/26 08:01:13;;;;;;;47.73;17.87;;;;;;;2.20;100.00;99143.78;7398207;19;20802;-43
2021/11/26 08:03:43;;;;;;;48.67;18.20;;;;;;;2.19;100.00;99139.50;7394315;19;20435;-43
2021/11/26 08:06:13;;;;;;;55.63;18.53;;;;;;;2.28;100.00;99140.81;7397341;19;20154;-44
2021/11/26 08:08:42;;;;;;;44.33;19.77;;;;;;;2.31;100.00;99131.56;7393710;19;20743;-43
2021/11/26 08:11:14;;;;;;;49.97;17.87;;;;;;;2.25;100.00;99133.00;7398517;19;20463;-42
2021/11/26 08:13:44;;;;;;;58.33;21.40;;;;;;;2.30;100.00;99128.13;7394454;19;20499;-45
2021/11/26 08:16:14;;;;;;;46.93;16.60;;;;;;;2.33;100.00;99122.31;7398002;19;21020;-46
2021/11/26 08:18:43;;;;;;;44.27;18.93;;;;;;;2.41;100.00;99121.03;7392204;19;20411;-42
2021/11/26 08:21:13;;;;;;;43.10;18.60;;;;;;;2.38;100.00;99115.78;7397989;19;20857;-43
2021/11/26 08:23:42;;;;;;;41.47;15.30;;;;;;;2.36;100.00;99122.50;7394529;19;20893;-45
2021/11/26 08:26:14;;;;;;;41.83;16.87;;;;;;;2.40;100.00;99111.63;7396876;19;20467;-46
2021/11/26 08:28:44;;;;;;;37.10;14.50;;;;;;;2.33;100.00;99107.06;7394482;19;20423;-45
2021/11/26 08:31:13;;;;;;;37.57;14.70;;;;;;;2.38;100.00;99106.50;7397977;19;20394;-43
2021/11/26 08:33:43;;;;;;;33.37;15.43;;;;;;;2.45;100.00;99107.66;7393609;19;20445;-44
2021/11/26 08:36:12;;;;;;;41.73;16.13;;;;;;;2.47;100.00;99098.44;7396652;19;20462;-43
2021/11/26 08:38:42;;;;;;;36.30;15.50;;;;;;;2.50;100.00;99096.00;7394329;19;20518;-45
2021/11/26 08:41:11;;;;;;;36.30;13.60;;;;;;;2.47;100.00;99105.19;7397617;19;20413;-46
2021/11/26 08:43:44;;;;;;;41.37;15.10;;;;;;;2.45;100.00;99096.59;7398258;19;20502;-44
2021/11/26 08:46:13;;;;;;;46.80;16.43;;;;;;;2.54;100.00;99090.28;7403487;19;20845;-43
2021/11/26 08:48:43;;;;;;;33.23;14.97;;;;;;;2.51;100.00;99081.63;7401054;19;20415;-47
2021/11/26 08:51:12;;;;;;;39.77;15.33;;;;;;;2.50;100.00;99078.19;7404678;19;20705;-44
2021/11/26 08:53:45;;;;;;;37.93;15.50;;;;;;;2.56;100.00;99078.47;7399960;19;20483;-45
2021/11/26 08:56:14;;;;;;;39.13;14.87;;;;;;;2.55;100.00;99075.84;7403105;19;20495;-46
2021/11/26 08:58:47;;;;;;;28.90;12.63;;;;;;;2.51;100.00;99072.28;7399767;19;20411;-43
2021/11/26 09:01:17;;;;;;;41.53;16.87;;;;;;;2.54;100.00;99072.44;7405762;19;20455;-43
2021/11/26 09:03:49;;;;;;;34.83;15.87;;;;;;;2.60;100.00;99069.31;7401494;19;20458;-42
2021/11/26 09:06:20;;;;;;;34.23;12.47;;;;;;;2.72;100.00;99068.13;7402633;19;20407;-42
2021/11/26 09:08:49;;;;;;;40.20;14.17;;;;;;;2.67;100.00;99057.75;7400539;19;20419;-44
2021/11/26 09:11:19;;;;;;;53.77;19.97;;;;;;;2.70;100.00;99062.97;7403775;19;20461;-43
2021/11/26 09:13:52;;;;;;;54.00;17.57;;;;;;;2.73;100.00;99058.03;7400295;19;20426;-42
2021/11/26 09:16:21;;;;;;;18.47;7.20;;;;;;;2.72;100.00;99058.81;7404062;19;20483;-43
2021/11/26 09:18:51;;;;;;;48.70;18.27;;;;;;;2.97;100.00;99053.16;7400210;19;20445;-43
2021/11/26 09:21:21;;;;;;;31.93;12.27;;;;;;;2.76;100.00;99040.31;7407868;19;20750;-44
2021/11/26 09:23:50;;;;;;;22.10;8.30;;;;;;;2.77;100.00;99042.06;7399763;19;20415;-42
2021/11/26 09:26:20;;;;;;;26.57;11.30;;;;;;;2.77;100.00;99036.13;7402111;19;20494;-44
2021/11/26 09:28:52;;;;;;;30.10;12.80;;;;;;;2.82;100.00;99032.97;7400128;19;21117;-47
2021/11/26 09:31:22;;;;;;;32.27;14.00;;;;;;;2.93;100.00;99035.13;7403044;19;20387;-44
2021/11/26 09:33:52;;;;;;;31.43;13.70;;;;;;;2.88;100.00;99027.28;7399922;19;20419;-46
2021/11/26 09:36:22;;;;;;;34.83;11.50;;;;;;;2.81;100.00;99026.13;7401745;19;20415;-50
2021/11/26 09:38:52;;;;;;;26.70;9.60;;;;;;;2.83;100.00;99024.50;7399182;19;20417;-44
2021/11/26 09:41:26;;;;;;;35.13;14.47;;;;;;;2.97;100.00;99016.59;7402650;19;20387;-51
2021/11/26 09:44:04;;;;;;;25.17;8.37;;;;;;;2.91;100.00;99013.78;7397346;19;20419;-47
2021/11/26 09:46:37;;;;;;;26.20;12.20;;;;;;;3.08;100.00;99009.47;7401163;19;20422;-50
2021/11/26 09:49:08;;;;;;;24.53;9.50;;;;;;;2.83;100.00;98999.03;7400350;19;20482;-45
2021/11/26 09:51:37;;;;;;;28.10;11.77;;;;;;;2.89;100.00;98995.03;7402347;19;20455;-49
2021/11/26 09:54:07;;;;;;;26.03;11.53;;;;;;;2.88;100.00;99006.03;7393763;19;20425;-42
2021/11/26 09:56:36;;;;;;;25.53;10.77;;;;;;;2.89;100.00;98995.91;7401699;19;20495;-43
2021/11/26 09:59:09;;;;;;;32.37;12.50;;;;;;;3.00;100.00;98980.19;7398182;19;20499;-42
2021/11/26 10:01:38;;;;;;;21.67;9.93;;;;;;;2.97;100.00;98991.13;7402269;19;20372;-42
2021/11/26 10:04:17;;;;;;;24.43;12.20;;;;;;;3.02;100.00;98976.91;7397842;19;20490;-41
2021/11/26 10:06:47;;;;;;;28.73;13.30;;;;;;;3.12;100.00;98970.53;7400065;19;20472;-41
2021/11/26 10:09:19;;;;;;;27.33;12.10;;;;;;;3.09;100.00;98970.41;7401422;19;20396;-42
2021/11/26 10:11:50;;;;;;;35.13;12.30;;;;;;;3.09;100.00;98971.28;7402324;19;20433;-41
2021/11/26 10:14:25;;;;;;;30.90;9.80;;;;;;;3.14;100.00;98965.50;7401981;19;20848;-42
2021/11/26 10:17:12;;;;;;;24.77;9.67;;;;;;;3.15;100.00;98957.06;7400428;19;20444;-44
2021/11/26 10:19:45;;;;;;;26.50;10.17;;;;;;;3.16;100.00;98956.25;7398327;19;20393;-43
2021/11/26 10:22:17;;;;;;;20.43;10.87;;;;;;;3.11;100.00;98950.97;7401091;19;20860;-42
2021/11/26 10:24:57;;;;;;;18.57;8.03;;;;;;;3.13;100.00;98951.03;7396283;19;20392;-44
2021/11/26 10:27:39;;;;;;;24.67;10.53;;;;;;;3.16;100.00;98936.75;7399203;19;20404;-42
2021/11/26 10:30:19;;;;;;;26.37;10.67;;;;;;;3.15;100.00;98939.22;7396639;19;20430;-42
2021/11/26 10:32:53;;;;;;;19.03;8.60;;;;;;;3.09;100.00;98925.41;7401401;19;20411;-43
2021/11/26 10:35:23;;;;;;;29.03;13.50;;;;;;;3.22;100.00;98918.28;7394026;19;20430;-41
2021/11/26 10:38:01;;;;;;;26.27;11.80;;;;;;;3.29;100.00;98919.41;7399147;19;20442;-43
2021/11/26 10:40:32;;;;;;;24.60;10.33;;;;;;;3.28;100.00;98910.88;7395925;19;20419;-42
2021/11/26 10:43:04;;;;;;;19.50;9.10;;;;;;;3.19;100.00;98910.50;7399892;19;20677;-41
2021/11/26 10:48:57;;;;;;;23.80;10.80;;;;;;;3.35;100.00;98892.47;7399056;19;20379;-42
2021/11/26 10:51:41;;;;;;;19.80;9.13;;;;;;;3.36;100.00;98888.25;7393120;19;20433;-42
2021/11/26 10:57:21;;;;;;;22.33;9.43;;;;;;;3.43;100.00;98879.19;7393623;19;20409;-42
2021/11/26 10:59:53;;;;;;;18.47;8.40;;;;;;;3.46;100.00;98875.09;7397317;19;20848;-41
2021/11/26 11:02:34;;;;;;;22.07;8.10;;;;;;;3.38;100.00;98866.22;7400267;19;20388;-41
2021/11/26 11:05:04;;;;;;;22.27;9.80;;;;;;;3.45;100.00;98857.16;7395401;19;20482;-43
2021/11/26 11:07:45;;;;;;;21.00;9.33;;;;;;;3.48;100.00;98857.28;7398324;19;20434;-44
2021/11/26 11:10:18;;;;;;;20.53;9.00;;;;;;;3.33;100.00;98858.41;7398073;19;20478;-43
2021/11/26 11:12:47;;;;;;;25.80;10.17;;;;;;;3.37;100.00;98854.31;7399913;19;20465;-46
2021/11/26 11:15:18;;;;;;;20.33;9.10;;;;;;;3.42;100.00;98851.94;7396130;19;20475;-43
2021/11/26 11:17:51;;;;;;;28.20;12.10;;;;;;;3.50;100.00;98848.88;7398165;19;20744;-45
2021/11/26 11:20:24;;;;;;;17.20;9.10;;;;;;;3.45;100.00;98857.16;7396610;19;20483;-42
2021/11/26 11:22:54;;;;;;;24.37;11.17;;;;;;;3.53;100.00;98840.47;7401696;19;20661;-42
2021/11/26 11:25:27;;;;;;;24.27;9.63;;;;;;;3.51;100.00;98831.91;7392908;19;20474;-45
2021/11/26 11:27:59;;;;;;;19.93;8.10;;;;;;;3.48;100.00;98831.78;7397735;19;20436;-44
2021/11/26 11:30:29;;;;;;;22.83;9.50;;;;;;;3.58;100.00;98821.13;7395548;19;20421;-43
2021/11/26 11:33:01;;;;;;;20.53;9.27;;;;;;;3.61;100.00;98822.94;7398999;19;20380;-42
2021/11/26 11:35:32;;;;;;;21.27;9.40;;;;;;;3.54;100.00;98823.50;7394851;19;20479;-43
2021/11/26 11:38:03;;;;;;;25.43;9.80;;;;;;;3.58;100.00;98812.63;7397817;19;20423;-44
2021/11/26 11:40:35;;;;;;;15.93;9.30;;;;;;;3.55;100.00;98810.81;7394970;19;20426;-45
2021/11/26 11:43:10;;;;;;;23.63;10.83;;;;;;;3.56;100.00;98810.00;7398582;19;20447;-44